createdAt,value
2018-08-12T00:00:27.120Z,2.00
2018-08-12T00:02:56.798Z,1.80
2018-08-12T00:05:25.593Z,1.90
2018-08-12T00:07:54.395Z,1.90
2018-08-12T00:10:24.116Z,1.90
2018-08-12T00:12:52.835Z,1.90
2018-08-12T00:15:22.501Z,2.43
2018-08-12T00:17:51.248Z,2.00
2018-08-12T00:20:21.587Z,2.33
2018-08-12T00:22:50.815Z,2.17
2018-08-12T00:25:20.976Z,1.63
2018-08-12T00:27:49.740Z,2.30
2018-08-12T00:30:19.153Z,2.07
2018-08-12T00:32:47.892Z,2.03
2018-08-12T00:35:17.798Z,2.17
2018-08-12T00:37:46.555Z,2.23
2018-08-12T00:40:16.260Z,1.77
2018-08-12T00:42:45.457Z,1.80
2018-08-12T00:45:17.343Z,1.87
2018-08-12T00:47:46.341Z,2.20
2018-08-12T00:50:15.845Z,1.60
2018-08-12T00:52:44.689Z,1.90
2018-08-12T00:55:15.541Z,2.00
2018-08-12T00:57:45.159Z,2.00
2018-08-12T01:00:16.958Z,2.00
2018-08-12T01:02:45.639Z,1.90
2018-08-12T01:05:15.705Z,2.20
2018-08-12T01:07:45.076Z,1.87
2018-08-12T01:10:14.247Z,2.30
2018-08-12T01:12:42.980Z,2.20
2018-08-12T01:15:13.973Z,1.90
2018-08-12T01:17:43.302Z,2.00
2018-08-12T01:20:14.026Z,2.50
2018-08-12T01:22:42.724Z,2.03
2018-08-12T01:25:11.918Z,2.03
2018-08-12T01:27:40.636Z,2.20
2018-08-12T01:30:13.083Z,1.80
2018-08-12T01:32:42.157Z,2.10
2018-08-12T01:35:11.965Z,2.10
2018-08-12T01:37:41.208Z,2.00
2018-08-12T01:40:12.035Z,2.27
2018-08-12T01:42:41.588Z,2.10
2018-08-12T01:45:12.998Z,2.17
2018-08-12T01:47:41.712Z,2.30
2018-08-12T01:50:12.881Z,1.93
2018-08-12T01:52:41.591Z,2.13
2018-08-12T01:55:10.332Z,2.13
2018-08-12T01:57:39.058Z,2.03
2018-08-12T02:00:10.354Z,2.03
2018-08-12T02:02:39.033Z,1.93
2018-08-12T02:05:07.778Z,2.20
2018-08-12T02:07:36.535Z,1.97
2018-08-12T02:10:07.171Z,2.03
2018-08-12T02:12:35.879Z,1.97
2018-08-12T02:15:05.800Z,2.33
2018-08-12T02:17:34.648Z,2.10
2018-08-12T02:20:04.033Z,1.70
2018-08-12T02:22:33.564Z,2.17
2018-08-12T02:25:02.273Z,2.10
2018-08-12T02:27:31.887Z,1.93
2018-08-12T02:30:00.577Z,2.17
2018-08-12T02:32:29.207Z,1.90
2018-08-12T02:34:57.913Z,1.80
2018-08-12T02:37:26.592Z,2.10
2018-08-12T02:39:58.129Z,2.63
2018-08-12T02:42:26.943Z,2.10
2018-08-12T02:44:55.864Z,1.73
2018-08-12T02:47:24.619Z,2.20
2018-08-12T02:49:53.257Z,2.13
2018-08-12T02:52:22.577Z,2.07
2018-08-12T02:54:51.275Z,2.00
2018-08-12T02:57:19.993Z,2.37
2018-08-12T02:59:49.424Z,2.17
2018-08-12T03:02:18.173Z,2.07
2018-08-12T03:04:46.855Z,2.17
2018-08-12T03:07:15.551Z,2.20
2018-08-12T03:09:44.201Z,2.03
2018-08-12T03:12:12.992Z,2.43
2018-08-12T03:14:41.645Z,1.97
2018-08-12T03:17:10.408Z,2.10
2018-08-12T03:19:39.146Z,2.27
2018-08-12T03:22:07.841Z,2.23
2018-08-12T03:24:36.510Z,2.00
2018-08-12T03:27:05.240Z,1.97
2018-08-12T03:29:34.296Z,2.30
2018-08-12T03:32:03.026Z,2.20
2018-08-12T03:34:32.704Z,2.33
2018-08-12T03:37:01.418Z,1.90
2018-08-12T03:39:30.170Z,2.10
2018-08-12T03:41:58.863Z,2.03
2018-08-12T03:44:27.547Z,2.40
2018-08-12T03:46:56.183Z,2.73
2018-08-12T03:49:24.857Z,2.73
2018-08-12T03:51:53.536Z,2.77
2018-08-12T03:54:22.268Z,2.27
2018-08-12T03:56:50.968Z,3.07
2018-08-12T03:59:19.669Z,2.50
2018-08-12T04:01:48.400Z,2.40
2018-08-12T04:04:17.138Z,1.90
2018-08-12T04:06:45.795Z,2.10
2018-08-12T04:09:14.476Z,2.27
2018-08-12T04:11:43.165Z,2.20
2018-08-12T04:14:11.891Z,2.50
2018-08-12T04:16:44.769Z,2.60
2018-08-12T04:19:13.429Z,2.20
2018-08-12T04:21:42.228Z,2.37
2018-08-12T04:24:10.957Z,2.33
2018-08-12T04:26:39.661Z,2.37
2018-08-12T04:29:08.430Z,2.37
2018-08-12T04:31:37.131Z,2.13
2018-08-12T04:34:05.825Z,2.20
2018-08-12T04:36:34.545Z,2.13
2018-08-12T04:39:03.364Z,2.00
2018-08-12T04:41:32.433Z,2.23
2018-08-12T04:44:01.176Z,2.43
2018-08-12T04:46:29.881Z,2.40
2018-08-12T04:48:58.534Z,2.87
2018-08-12T04:51:27.712Z,2.50
2018-08-12T04:53:56.351Z,2.40
2018-08-12T04:56:25.076Z,2.37
2018-08-12T04:58:53.796Z,2.20
2018-08-12T05:01:22.438Z,2.00
2018-08-12T05:03:51.567Z,2.47
2018-08-12T05:06:20.235Z,2.57
2018-08-12T05:08:49.003Z,2.57
2018-08-12T05:11:17.900Z,2.70
2018-08-12T05:13:46.612Z,2.27
2018-08-12T05:16:15.279Z,2.47
2018-08-12T05:18:46.206Z,2.30
2018-08-12T05:21:14.905Z,2.40
2018-08-12T05:23:43.649Z,2.40
2018-08-12T05:26:12.446Z,2.60
2018-08-12T05:28:41.167Z,2.00
2018-08-12T05:31:09.960Z,2.40
2018-08-12T05:33:38.659Z,2.63
2018-08-12T05:36:07.583Z,2.50
2018-08-12T05:38:36.308Z,2.40
2018-08-12T05:41:05.069Z,2.40
2018-08-12T05:43:34.640Z,2.60
2018-08-12T05:46:03.385Z,2.20
2018-08-12T05:48:32.740Z,2.37
2018-08-12T05:51:01.519Z,2.00
2018-08-12T05:53:30.196Z,2.90
2018-08-12T05:55:58.895Z,2.30
2018-08-12T05:58:27.618Z,2.03
2018-08-12T06:00:56.301Z,2.27
2018-08-12T06:03:24.972Z,2.13
2018-08-12T06:05:53.685Z,2.13
2018-08-12T06:08:22.337Z,1.90
2018-08-12T06:10:51.028Z,2.37
2018-08-12T06:13:19.723Z,2.03
2018-08-12T06:15:48.501Z,2.40
2018-08-12T06:18:17.176Z,2.00
2018-08-12T06:20:45.875Z,1.80
2018-08-12T06:23:14.616Z,1.93
2018-08-12T06:25:43.334Z,2.00
2018-08-12T06:28:11.979Z,1.97
2018-08-12T06:30:40.765Z,1.80
2018-08-12T06:33:09.486Z,1.80
2018-08-12T06:35:38.244Z,2.00
2018-08-12T06:38:06.954Z,2.00
2018-08-12T06:40:35.621Z,2.23
2018-08-12T06:43:04.396Z,2.10
2018-08-12T06:45:34.211Z,2.00
2018-08-12T06:48:02.971Z,1.60
2018-08-12T06:50:32.625Z,2.00
2018-08-12T06:53:01.396Z,1.50
2018-08-12T06:55:30.199Z,2.57
2018-08-12T06:57:58.880Z,1.73
2018-08-12T07:00:27.635Z,1.70
2018-08-12T07:02:56.354Z,1.70
2018-08-12T07:05:25.016Z,1.50
2018-08-12T07:07:53.767Z,1.90
2018-08-12T07:10:22.509Z,1.97
2018-08-12T07:12:51.241Z,1.30
2018-08-12T07:15:19.980Z,1.60
2018-08-12T07:17:48.728Z,1.90
2018-08-12T07:20:17.457Z,1.80
2018-08-12T07:22:46.185Z,2.00
2018-08-12T07:25:15.576Z,1.80
2018-08-12T07:27:44.421Z,1.90
2018-08-12T07:30:15.876Z,1.93
2018-08-12T07:32:44.630Z,1.90
2018-08-12T07:35:13.544Z,1.80
2018-08-12T07:37:43.029Z,1.90
2018-08-12T07:40:15.495Z,2.07
2018-08-12T07:42:44.230Z,2.47
2018-08-12T07:45:13.601Z,2.20
2018-08-12T07:47:42.824Z,1.90
2018-08-12T07:50:11.729Z,2.03
2018-08-12T07:52:41.585Z,1.70
2018-08-12T07:55:11.362Z,1.80
2018-08-12T07:57:40.533Z,1.80
2018-08-12T08:00:12.194Z,1.80
2018-08-12T08:02:40.951Z,2.10
2018-08-12T08:05:09.665Z,1.20
2018-08-12T08:07:38.418Z,1.60
2018-08-12T08:10:09.506Z,1.67
2018-08-12T08:12:38.847Z,1.80
2018-08-12T08:15:09.839Z,1.43
2018-08-12T08:17:39.132Z,1.30
2018-08-12T08:20:09.083Z,2.07
2018-08-12T08:22:38.135Z,1.70
2018-08-12T08:25:07.739Z,1.20
2018-08-12T08:27:36.754Z,1.50
2018-08-12T08:30:07.152Z,1.80
2018-08-12T08:32:35.880Z,1.30
2018-08-12T08:35:04.683Z,1.50
2018-08-12T08:37:34.061Z,2.07
2018-08-12T08:40:02.902Z,1.70
2018-08-12T08:42:32.329Z,1.73
2018-08-12T08:45:02.884Z,1.40
2018-08-12T08:47:35.673Z,2.10
2018-08-12T08:50:04.898Z,1.17
2018-08-12T08:52:34.971Z,1.43
2018-08-12T08:55:03.924Z,1.27
2018-08-12T08:57:37.889Z,1.50
2018-08-12T09:00:09.590Z,2.00
2018-08-12T09:02:38.734Z,1.40
2018-08-12T09:05:09.262Z,1.60
2018-08-12T09:07:38.196Z,1.60
2018-08-12T09:10:08.678Z,1.93
2018-08-12T09:12:37.973Z,1.37
2018-08-12T09:15:08.618Z,1.23
2018-08-12T09:17:37.605Z,1.07
2018-08-12T09:20:08.617Z,1.17
2018-08-12T09:22:37.588Z,1.60
2018-08-12T09:25:07.106Z,1.50
2018-08-12T09:27:36.059Z,1.30
2018-08-12T09:30:08.229Z,1.23
2018-08-12T09:32:37.005Z,1.20
2018-08-12T09:35:05.801Z,2.00
2018-08-12T09:37:34.543Z,2.10
2018-08-12T09:40:03.312Z,3.10
2018-08-12T09:42:32.751Z,3.90
2018-08-12T09:45:01.437Z,2.30
2018-08-12T09:47:30.112Z,2.30
2018-08-12T09:49:58.822Z,3.00
2018-08-12T09:52:27.461Z,3.07
2018-08-12T09:54:56.220Z,3.90
2018-08-12T09:57:24.909Z,2.10
2018-08-12T09:59:53.672Z,2.30
2018-08-12T10:02:22.293Z,1.70
2018-08-12T10:04:50.965Z,1.70
2018-08-12T10:07:19.647Z,1.57
2018-08-12T10:09:48.342Z,1.70
2018-08-12T10:12:16.996Z,1.50
2018-08-12T10:14:45.618Z,1.83
2018-08-12T10:17:14.962Z,1.10
2018-08-12T10:19:43.750Z,1.10
2018-08-12T10:22:12.617Z,1.10
2018-08-12T10:24:41.291Z,1.67
2018-08-12T10:27:10.080Z,1.27
2018-08-12T10:29:38.756Z,1.30
2018-08-12T10:32:07.510Z,1.70
2018-08-12T10:34:36.208Z,1.70
2018-08-12T10:37:05.023Z,1.10
2018-08-12T10:39:34.766Z,1.30
2018-08-12T10:42:03.877Z,1.30
2018-08-12T10:44:37.402Z,1.27
2018-08-12T10:47:06.398Z,1.40
2018-08-12T10:49:35.168Z,1.57
2018-08-12T10:52:03.923Z,1.20
2018-08-12T10:54:33.368Z,1.30
2018-08-12T10:57:02.204Z,1.50
2018-08-12T10:59:31.061Z,1.37
2018-08-12T11:01:59.895Z,1.10
2018-08-12T11:04:28.572Z,1.37
2018-08-12T11:06:57.377Z,1.63
2018-08-12T11:09:26.839Z,1.50
2018-08-12T11:11:55.638Z,1.17
2018-08-12T11:14:24.345Z,1.70
2018-08-12T11:16:53.117Z,1.40
2018-08-12T11:19:21.891Z,1.30
2018-08-12T11:21:50.616Z,1.40
2018-08-12T11:24:19.304Z,1.73
2018-08-12T11:26:48.022Z,1.50
2018-08-12T11:29:16.678Z,1.53
2018-08-12T11:31:45.400Z,1.00
2018-08-12T11:34:14.088Z,1.40
2018-08-12T11:36:42.775Z,1.67
2018-08-12T11:39:12.339Z,1.17
2018-08-12T11:41:41.089Z,1.47
2018-08-12T11:44:13.001Z,1.47
2018-08-12T11:46:41.729Z,1.20
2018-08-12T11:49:10.408Z,1.20
2018-08-12T11:51:39.146Z,1.33
2018-08-12T11:54:07.881Z,1.40
2018-08-12T11:56:36.595Z,1.20
2018-08-12T11:59:05.401Z,1.30
2018-08-12T12:01:38.945Z,1.30
2018-08-12T12:04:07.833Z,1.83
2018-08-12T12:06:36.601Z,1.30
2018-08-12T12:09:07.797Z,1.00
2018-08-12T12:11:36.480Z,1.57
2018-08-12T12:14:05.656Z,1.60
2018-08-12T12:16:35.344Z,1.20
2018-08-12T12:19:04.490Z,1.70
2018-08-12T12:21:33.844Z,1.43
2018-08-12T12:24:02.560Z,1.53
2018-08-12T12:26:31.205Z,1.80
2018-08-12T12:28:59.939Z,1.77
2018-08-12T12:31:28.661Z,1.87
2018-08-12T12:33:57.358Z,1.63
2018-08-12T12:36:26.066Z,1.63
2018-08-12T12:38:54.756Z,1.50
2018-08-12T12:41:23.507Z,1.53
2018-08-12T12:43:52.213Z,1.20
2018-08-12T12:46:21.021Z,1.23
2018-08-12T12:48:49.718Z,1.47
2018-08-12T12:51:18.423Z,1.47
2018-08-12T12:53:47.090Z,1.50
2018-08-12T12:56:15.879Z,1.30
2018-08-12T12:58:44.542Z,5.97
2018-08-12T13:01:13.894Z,3.83
2018-08-12T13:03:42.525Z,2.80
2018-08-12T13:06:11.324Z,2.50
2018-08-12T13:08:40.051Z,3.40
2018-08-12T13:11:08.724Z,1.90
2018-08-12T13:13:37.376Z,6.70
2018-08-12T13:16:06.184Z,4.60
2018-08-12T13:18:38.176Z,7.60
2018-08-12T13:21:06.989Z,3.37
2018-08-12T13:23:35.672Z,2.07
2018-08-12T13:26:04.404Z,1.73
2018-08-12T13:28:35.285Z,1.30
2018-08-12T13:31:03.961Z,1.53
2018-08-12T13:33:33.176Z,1.47
2018-08-12T13:36:01.882Z,1.10
2018-08-12T13:38:30.713Z,1.60
2018-08-12T13:41:00.082Z,1.37
2018-08-12T13:43:28.896Z,1.40
2018-08-12T13:45:57.576Z,1.20
2018-08-12T13:48:26.272Z,1.00
2018-08-12T13:50:55.025Z,2.87
2018-08-12T13:53:23.657Z,2.87
2018-08-12T13:55:52.424Z,7.30
2018-08-12T13:58:21.150Z,9.03
2018-08-12T14:00:49.848Z,2.53
2018-08-12T14:03:24.952Z,1.53
2018-08-12T14:05:53.740Z,1.80
2018-08-12T14:08:22.960Z,1.70
2018-08-12T14:10:51.664Z,2.00
2018-08-12T14:13:20.297Z,1.80
2018-08-12T14:15:48.946Z,1.87
2018-08-12T14:18:17.692Z,2.00
2018-08-12T14:20:46.380Z,1.70
2018-08-12T14:23:15.101Z,1.50
2018-08-12T14:25:43.867Z,2.13
2018-08-12T14:28:12.577Z,1.80
2018-08-12T14:30:41.330Z,1.80
2018-08-12T14:33:10.062Z,2.10
2018-08-12T14:35:38.804Z,1.93
2018-08-12T14:38:07.536Z,2.17
2018-08-12T14:40:36.305Z,1.77
2018-08-12T14:43:05.046Z,2.23
2018-08-12T14:45:34.641Z,1.80
2018-08-12T14:48:03.372Z,1.90
2018-08-12T14:50:32.077Z,2.63
2018-08-12T14:53:00.755Z,2.40
2018-08-12T14:55:29.467Z,2.37
2018-08-12T14:57:58.233Z,2.43
2018-08-12T15:00:26.977Z,2.63
2018-08-12T15:02:55.758Z,2.23
2018-08-12T15:05:24.552Z,2.93
2018-08-12T15:07:53.296Z,2.00
2018-08-12T15:10:22.015Z,2.27
2018-08-12T15:12:50.672Z,2.20
2018-08-12T15:15:19.427Z,2.13
2018-08-12T15:17:48.137Z,3.00
2018-08-12T15:20:17.408Z,2.30
2018-08-12T15:22:46.239Z,2.27
2018-08-12T15:25:16.944Z,2.67
2018-08-12T15:27:45.733Z,2.70
2018-08-12T15:30:14.538Z,2.60
2018-08-12T15:32:43.286Z,2.40
2018-08-12T15:35:12.478Z,2.30
2018-08-12T15:37:41.264Z,2.57
2018-08-12T15:40:13.493Z,2.60
2018-08-12T15:42:42.861Z,2.60
2018-08-12T15:45:13.606Z,2.73
2018-08-12T15:47:42.981Z,2.60
2018-08-12T15:50:12.334Z,3.33
2018-08-12T15:52:42.288Z,3.50
2018-08-12T15:55:11.399Z,3.10
2018-08-12T15:57:40.232Z,3.83
2018-08-12T16:00:17.462Z,4.20
2018-08-12T16:02:46.482Z,3.80
2018-08-12T16:05:15.312Z,3.00
2018-08-12T16:07:45.224Z,3.40
2018-08-12T16:10:21.301Z,3.10
2018-08-12T16:12:51.065Z,2.80
2018-08-12T16:15:20.113Z,2.60
2018-08-12T16:17:48.814Z,2.77
2018-08-12T16:20:17.550Z,2.80
2018-08-12T16:22:46.295Z,2.40
2018-08-12T16:25:22.331Z,2.77
2018-08-12T16:27:51.142Z,2.80
2018-08-12T16:30:20.091Z,2.50
2018-08-12T16:32:48.831Z,2.27
2018-08-12T16:35:18.151Z,2.70
2018-08-12T16:37:47.431Z,2.50
2018-08-12T16:40:18.188Z,2.53
2018-08-12T16:42:47.168Z,2.40
2018-08-12T16:45:16.464Z,2.90
2018-08-12T16:47:45.649Z,3.10
2018-08-12T16:50:14.449Z,2.57
2018-08-12T16:52:43.624Z,3.57
2018-08-12T16:55:14.285Z,2.70
2018-08-12T16:57:43.666Z,2.53
2018-08-12T17:00:17.070Z,3.17
2018-08-12T17:02:46.202Z,2.53
2018-08-12T17:05:16.404Z,2.73
2018-08-12T17:07:45.452Z,2.30
2018-08-12T17:10:15.497Z,2.60
2018-08-12T17:12:44.187Z,2.73
2018-08-12T17:15:15.061Z,3.33
2018-08-12T17:17:43.752Z,2.83
2018-08-12T17:20:14.849Z,3.33
2018-08-12T17:22:44.560Z,3.03
2018-08-12T17:25:13.381Z,3.03
2018-08-12T17:27:42.076Z,2.67
2018-08-12T17:30:12.503Z,2.50
2018-08-12T17:32:41.420Z,3.17
2018-08-12T17:35:11.304Z,3.13
2018-08-12T17:37:40.708Z,3.43
2018-08-12T17:40:11.355Z,4.03
2018-08-12T17:42:40.114Z,2.97
2018-08-12T17:45:10.377Z,3.47
2018-08-12T17:47:39.512Z,3.17
2018-08-12T17:50:09.693Z,3.40
2018-08-12T17:52:38.380Z,3.33
2018-08-12T17:55:07.844Z,3.53
2018-08-12T17:57:36.602Z,3.33
2018-08-12T18:00:07.865Z,3.27
2018-08-12T18:02:36.656Z,3.40
2018-08-12T18:05:05.814Z,3.20
2018-08-12T18:07:35.540Z,3.50
2018-08-12T18:10:04.729Z,3.20
2018-08-12T18:12:34.330Z,3.43
2018-08-12T18:15:03.115Z,3.50
2018-08-12T18:17:32.156Z,4.00
2018-08-12T18:20:00.889Z,3.43
2018-08-12T18:22:29.632Z,3.20
2018-08-12T18:24:58.313Z,3.77
2018-08-12T18:27:27.030Z,3.73
2018-08-12T18:29:55.769Z,3.70
2018-08-12T18:32:24.595Z,3.80
2018-08-12T18:34:53.306Z,3.53
2018-08-12T18:37:22.075Z,3.43
2018-08-12T18:39:50.732Z,4.50
2018-08-12T18:42:19.408Z,3.47
2018-08-12T18:44:48.053Z,3.70
2018-08-12T18:47:16.858Z,3.70
2018-08-12T18:49:45.521Z,3.93
2018-08-12T18:52:14.416Z,3.90
2018-08-12T18:54:43.092Z,3.77
2018-08-12T18:57:11.760Z,4.30
2018-08-12T18:59:40.453Z,3.63
2018-08-12T19:02:09.878Z,4.20
2018-08-12T19:04:38.617Z,3.97
2018-08-12T19:07:07.334Z,4.33
2018-08-12T19:09:36.092Z,3.50
2018-08-12T19:12:04.861Z,4.03
2018-08-12T19:14:34.217Z,3.77
2018-08-12T19:17:02.919Z,4.00
2018-08-12T19:19:31.591Z,4.30
2018-08-12T19:22:00.384Z,4.80
2018-08-12T19:24:29.065Z,4.60
2018-08-12T19:26:57.788Z,4.70
2018-08-12T19:29:26.517Z,4.77
2018-08-12T19:31:55.203Z,4.83
2018-08-12T19:34:23.907Z,4.43
2018-08-12T19:36:52.624Z,3.60
2018-08-12T19:39:21.309Z,4.30
2018-08-12T19:41:49.963Z,4.33
2018-08-12T19:44:18.644Z,4.90
2018-08-12T19:46:47.407Z,4.40
2018-08-12T19:49:16.054Z,4.90
2018-08-12T19:51:44.793Z,4.33
2018-08-12T19:54:13.472Z,4.90
2018-08-12T19:56:42.175Z,3.93
2018-08-12T19:59:10.846Z,4.27
2018-08-12T20:01:39.534Z,4.90
2018-08-12T20:04:08.246Z,5.00
2018-08-12T20:06:36.886Z,4.33
2018-08-12T20:09:08.634Z,4.23
2018-08-12T20:11:37.313Z,4.93
2018-08-12T20:14:06.375Z,4.80
2018-08-12T20:16:35.049Z,4.13
2018-08-12T20:19:03.829Z,4.33
2018-08-12T20:21:32.556Z,4.57
2018-08-12T20:24:01.595Z,5.10
2018-08-12T20:26:30.329Z,4.60
2018-08-12T20:28:58.992Z,4.57
2018-08-12T20:31:27.788Z,4.63
2018-08-12T20:33:56.595Z,4.90
2018-08-12T20:36:25.515Z,5.00
2018-08-12T20:38:54.268Z,5.30
2018-08-12T20:41:23.084Z,4.93
2018-08-12T20:43:51.869Z,4.97
2018-08-12T20:46:20.580Z,5.20
2018-08-12T20:48:49.271Z,5.40
2018-08-12T20:51:18.518Z,5.13
2018-08-12T20:53:47.165Z,5.40
2018-08-12T20:56:15.854Z,5.70
2018-08-12T20:58:44.526Z,5.17
2018-08-12T21:01:13.263Z,6.13
2018-08-12T21:03:41.936Z,6.00
2018-08-12T21:06:10.726Z,6.20
2018-08-12T21:08:39.468Z,7.00
2018-08-12T21:11:08.109Z,6.93
2018-08-12T21:13:36.798Z,6.30
2018-08-12T21:16:05.666Z,6.70
2018-08-12T21:18:35.241Z,5.87
2018-08-12T21:21:03.942Z,6.70
2018-08-12T21:23:33.224Z,5.87
2018-08-12T21:26:01.957Z,5.40
2018-08-12T21:28:30.686Z,5.07
2018-08-12T21:30:59.375Z,4.83
2018-08-12T21:33:28.485Z,4.80
2018-08-12T21:35:57.227Z,5.00
2018-08-12T21:38:25.869Z,5.47
2018-08-12T21:40:54.630Z,5.60
2018-08-12T21:43:23.329Z,4.70
2018-08-12T21:45:52.067Z,4.90
2018-08-12T21:48:20.760Z,5.33
2018-08-12T21:50:49.476Z,5.67
2018-08-12T21:53:18.167Z,5.30
2018-08-12T21:55:46.877Z,4.97
2018-08-12T21:58:15.603Z,4.60
2018-08-12T22:00:44.391Z,4.53
2018-08-12T22:03:13.062Z,5.50
2018-08-12T22:05:41.873Z,5.63
2018-08-12T22:08:10.580Z,4.60
2018-08-12T22:10:39.972Z,5.57
2018-08-12T22:13:09.491Z,5.73
2018-08-12T22:15:38.278Z,6.10
2018-08-12T22:18:08.303Z,6.10
2018-08-12T22:20:37.182Z,5.90
2018-08-12T22:23:06.069Z,5.33
2018-08-12T22:25:39.353Z,5.83
2018-08-12T22:28:08.831Z,6.17
2018-08-12T22:30:37.557Z,4.90
2018-08-12T22:33:06.394Z,5.40
2018-08-12T22:35:35.154Z,5.63
2018-08-12T22:38:03.833Z,5.57
2018-08-12T22:40:32.627Z,5.20
2018-08-12T22:43:01.449Z,5.30
2018-08-12T22:45:30.148Z,5.37
2018-08-12T22:47:58.805Z,5.27
2018-08-12T22:50:27.524Z,5.17
2018-08-12T22:52:56.197Z,5.50
2018-08-12T22:55:24.967Z,4.83
2018-08-12T22:57:53.655Z,5.70
2018-08-12T23:00:22.407Z,5.47
2018-08-12T23:02:51.188Z,5.00
2018-08-12T23:05:19.916Z,4.90
2018-08-12T23:07:48.656Z,5.53
2018-08-12T23:10:17.334Z,5.40
2018-08-12T23:12:45.980Z,4.90
2018-08-12T23:15:25.833Z,5.63
2018-08-12T23:17:54.572Z,5.33
2018-08-12T23:20:23.288Z,4.93
2018-08-12T23:22:51.958Z,5.17
2018-08-12T23:25:20.609Z,5.13
2018-08-12T23:27:50.184Z,5.93
2018-08-12T23:30:18.889Z,5.37
2018-08-12T23:32:47.594Z,5.27
2018-08-12T23:35:16.282Z,4.43
2018-08-12T23:37:44.924Z,5.00
2018-08-12T23:40:13.592Z,5.73
2018-08-12T23:42:42.249Z,5.03
2018-08-12T23:45:11.009Z,5.33
2018-08-12T23:47:39.744Z,5.20
2018-08-12T23:50:08.555Z,6.13
2018-08-12T23:52:37.232Z,5.37
2018-08-12T23:55:05.893Z,5.60
2018-08-12T23:57:35.780Z,5.30
